Time;durP1;ratioP1;P1;durP2;ratioP2;P2;SDS_P1;SDS_P2;PMS_P1;PMS_P2;Temp;Humidity;BMP_temperature;BMP_pressure;BME280_temperature;BME280_humidity;BME280_pressure;Samples;Min_cycle;Max_cycle;Signal;HPM_P1;HPM_P2
2024/01/30 00:04:31;;;;;;;23.70;12.85;;;7.50;99.90;;;;;;10068559;28;20053;-76
2024/01/30 00:09:21;;;;;;;22.10;12.95;;;7.50;99.90;;;;;;10056741;28;20103;-76
2024/01/30 00:14:12;;;;;;;22.60;12.85;;;7.40;99.90;;;;;;10060204;28;20208;-73
2024/01/30 00:19:03;;;;;;;19.55;12.23;;;7.40;99.90;;;;;;10058546;28;20030;-69
2024/01/30 00:23:54;;;;;;;17.73;9.50;;;7.40;99.90;;;;;;10061026;28;20443;-73
2024/01/30 00:28:44;;;;;;;16.75;9.27;;;7.50;99.90;;;;;;10061152;28;20126;-77
2024/01/30 00:33:35;;;;;;;19.00;9.85;;;7.40;99.90;;;;;;10060724;28;20472;-66
2024/01/30 00:38:26;;;;;;;13.90;8.88;;;7.40;99.90;;;;;;10060139;28;20025;-66
2024/01/30 00:43:16;;;;;;;15.05;8.95;;;7.40;99.90;;;;;;10063279;28;20100;-69
2024/01/30 00:48:07;;;;;;;13.93;9.32;;;7.30;99.90;;;;;;10059913;28;20033;-72
2024/01/30 00:52:57;;;;;;;15.40;8.25;;;7.30;99.90;;;;;;10059698;28;20379;-66
2024/01/30 00:57:48;;;;;;;15.93;9.13;;;7.30;99.90;;;;;;10059303;28;20464;-67
2024/01/30 01:02:39;;;;;;;15.13;7.97;;;7.20;99.90;;;;;;10059163;28;20339;-67
2024/01/30 01:07:30;;;;;;;13.75;8.95;;;7.20;99.90;;;;;;10059034;28;20026;-72
2024/01/30 01:12:21;;;;;;;13.75;8.60;;;7.20;99.90;;;;;;10057335;28;20046;-70
2024/01/30 01:17:12;;;;;;;15.30;8.23;;;7.20;99.90;;;;;;10059336;28;20026;-69
2024/01/30 01:22:03;;;;;;;14.23;8.02;;;7.20;99.90;;;;;;10058178;28;20060;-69
2024/01/30 01:26:53;;;;;;;13.80;8.18;;;7.20;99.90;;;;;;10056691;28;20123;-66
2024/01/30 01:31:44;;;;;;;15.77;9.85;;;7.20;99.90;;;;;;10056543;28;20079;-73
2024/01/30 01:36:35;;;;;;;15.07;8.35;;;7.20;99.90;;;;;;10058452;28;20041;-71
2024/01/30 01:41:33;;;;;;;15.50;9.07;;;7.10;99.90;;;;;;10057788;28;20053;-69
2024/01/30 01:46:26;;;;;;;13.65;8.07;;;7.10;99.90;;;;;;10056895;28;20037;-71
2024/01/30 01:51:16;;;;;;;15.35;8.80;;;7.10;99.90;;;;;;10057602;28;20028;-71
2024/01/30 01:56:08;;;;;;;16.98;8.95;;;7.10;99.90;;;;;;10056252;28;20034;-75
2024/01/30 02:00:59;;;;;;;18.27;9.82;;;7.10;99.90;;;;;;10057788;28;20109;-66
2024/01/30 02:05:51;;;;;;;13.98;7.95;;;7.10;99.90;;;;;;10057651;28;20560;-74
2024/01/30 02:10:42;;;;;;;13.93;8.55;;;7.20;99.90;;;;;;10058607;28;20053;-74
2024/01/30 02:15:32;;;;;;;14.52;9.82;;;7.10;99.90;;;;;;10057035;28;20242;-65
2024/01/30 02:20:25;;;;;;;15.07;9.00;;;7.10;99.90;;;;;;10056755;28;20025;-65
2024/01/30 02:25:15;;;;;;;14.80;8.25;;;7.10;99.90;;;;;;10056368;28;21434;-65
2024/01/30 02:30:07;;;;;;;12.13;7.65;;;7.10;99.90;;;;;;10056411;28;20037;-66
2024/01/30 02:34:57;;;;;;;14.98;8.60;;;7.10;99.90;;;;;;10056097;28;20581;-67
2024/01/30 02:39:48;;;;;;;14.60;8.77;;;7.10;99.90;;;;;;10064960;28;20026;-66
2024/01/30 02:44:38;;;;;;;14.25;7.75;;;7.20;99.90;;;;;;10056210;28;20061;-66
2024/01/30 02:49:29;;;;;;;12.40;7.93;;;7.20;99.90;;;;;;10054561;28;20030;-67
2024/01/30 02:54:20;;;;;;;14.00;7.60;;;7.20;99.90;;;;;;10055506;28;20495;-67
2024/01/30 02:59:10;;;;;;;17.33;7.75;;;7.20;99.90;;;;;;10056120;28;20056;-67
2024/01/30 03:04:01;;;;;;;11.50;7.30;;;7.20;99.90;;;;;;10055505;28;20199;-67
2024/01/30 03:08:52;;;;;;;11.93;6.97;;;7.20;99.90;;;;;;10058159;28;20092;-65
2024/01/30 03:13:43;;;;;;;11.40;6.93;;;7.10;99.90;;;;;;10055202;28;20048;-66
2024/01/30 03:18:33;;;;;;;9.60;6.63;;;7.20;99.90;;;;;;10054767;28;20041;-64
2024/01/30 03:23:24;;;;;;;12.93;7.63;;;7.20;99.90;;;;;;10056877;28;20080;-67
2024/01/30 03:28:14;;;;;;;12.93;6.97;;;7.10;99.90;;;;;;10064417;28;20033;-67
2024/01/30 03:33:05;;;;;;;15.23;8.40;;;7.10;99.90;;;;;;10062819;28;20157;-70
2024/01/30 03:37:56;;;;;;;11.70;7.93;;;7.00;99.90;;;;;;10062206;28;20108;-70
2024/01/30 03:42:46;;;;;;;12.98;7.80;;;7.00;99.90;;;;;;10062375;28;20108;-70
2024/01/30 03:47:37;;;;;;;13.38;8.02;;;6.90;99.90;;;;;;10063842;28;20026;-68
2024/01/30 03:52:27;;;;;;;13.98;9.13;;;6.90;99.90;;;;;;10062514;28;20033;-66
2024/01/30 03:57:18;;;;;;;11.77;7.82;;;6.90;99.90;;;;;;10061934;28;20505;-67
2024/01/30 04:02:11;;;;;;;10.70;7.63;;;6.80;99.90;;;;;;10058542;28;20039;-67
2024/01/30 04:07:02;;;;;;;13.65;7.28;;;6.90;99.90;;;;;;10059342;28;20483;-65
2024/01/30 04:11:52;;;;;;;12.20;8.32;;;6.80;99.90;;;;;;10059657;28;20036;-64
2024/01/30 04:16:43;;;;;;;20.35;8.55;;;6.80;99.90;;;;;;10060771;28;20041;-66
2024/01/30 04:21:33;;;;;;;14.88;8.57;;;6.80;99.90;;;;;;10060309;28;20050;-67
2024/01/30 04:26:24;;;;;;;13.35;7.75;;;6.70;99.90;;;;;;10064759;28;20029;-65
2024/01/30 04:31:15;;;;;;;13.57;7.32;;;6.70;99.90;;;;;;10060976;28;20045;-66
2024/01/30 04:36:11;;;;;;;9.15;6.30;;;6.70;99.90;;;;;;10060717;28;20037;-67
2024/01/30 04:41:02;;;;;;;13.88;6.45;;;6.70;99.90;;;;;;10060317;28;20044;-66
2024/01/30 04:45:52;;;;;;;12.88;6.45;;;6.60;99.90;;;;;;10058867;28;20032;-65
2024/01/30 04:50:43;;;;;;;12.88;7.25;;;6.60;99.90;;;;;;10060153;28;20033;-65
2024/01/30 04:55:35;;;;;;;10.15;6.05;;;6.70;99.90;;;;;;10059771;28;20145;-66
2024/01/30 05:00:26;;;;;;;9.52;5.60;;;6.60;99.90;;;;;;10056436;28;20021;-65
2024/01/30 05:05:17;;;;;;;9.55;5.82;;;6.60;99.90;;;;;;10059684;28;20111;-67
2024/01/30 05:10:08;;;;;;;12.85;6.45;;;6.60;99.90;;;;;;10059806;28;20025;-65
2024/01/30 05:14:58;;;;;;;10.02;5.18;;;6.70;99.90;;;;;;10059338;28;20037;-66
2024/01/30 05:19:49;;;;;;;8.32;5.38;;;6.70;99.90;;;;;;10059002;28;20038;-67
2024/01/30 05:24:40;;;;;;;11.25;6.40;;;6.60;99.90;;;;;;10058485;28;20076;-66
2024/01/30 05:29:30;;;;;;;10.55;6.28;;;6.60;99.90;;;;;;10057985;28;20403;-67
2024/01/30 05:34:21;;;;;;;9.93;6.20;;;6.50;99.90;;;;;;10057478;28;20040;-66
2024/01/30 05:39:11;;;;;;;8.68;5.60;;;6.60;99.90;;;;;;10057400;28;20024;-66
2024/01/30 05:44:02;;;;;;;11.50;5.68;;;6.60;99.90;;;;;;10058312;28;20071;-67
2024/01/30 05:48:53;;;;;;;10.82;6.07;;;6.60;99.90;;;;;;10056642;28;20092;-67
2024/01/30 05:53:43;;;;;;;12.20;5.00;;;6.60;99.90;;;;;;10057860;28;20095;-68
2024/01/30 05:58:34;;;;;;;9.93;5.90;;;6.60;99.90;;;;;;10057551;28;20071;-67
2024/01/30 06:03:25;;;;;;;9.88;5.80;;;6.60;99.90;;;;;;10056467;28;20423;-65
2024/01/30 06:08:15;;;;;;;9.25;4.90;;;6.60;99.90;;;;;;10055636;28;20044;-65
2024/01/30 06:13:06;;;;;;;9.07;5.97;;;6.60;99.90;;;;;;10055685;28;20458;-66
2024/01/30 06:17:57;;;;;;;6.30;5.05;;;6.60;99.90;;;;;;10055211;28;20040;-64
2024/01/30 06:22:47;;;;;;;8.73;5.45;;;6.60;99.90;;;;;;10056148;28;20064;-67
2024/01/30 06:27:38;;;;;;;9.60;5.50;;;6.50;99.90;;;;;;10056267;28;20353;-65
2024/01/30 06:32:34;;;;;;;8.73;6.90;;;6.50;99.90;;;;;;10056412;28;20459;-65
2024/01/30 06:37:24;;;;;;;8.68;5.82;;;6.50;99.90;;;;;;10055581;28;20037;-65
2024/01/30 06:42:15;;;;;;;9.57;5.45;;;6.50;99.90;;;;;;10056210;28;20029;-66
2024/01/30 06:47:06;;;;;;;12.18;6.88;;;6.50;99.90;;;;;;10038241;28;20504;-65
2024/01/30 06:51:57;;;;;;;11.48;6.93;;;6.50;99.90;;;;;;10045235;28;20112;-65
2024/01/30 06:56:47;;;;;;;17.00;7.55;;;6.50;99.90;;;;;;10044148;28;20052;-65
2024/01/30 07:01:38;;;;;;;15.00;7.90;;;6.40;99.90;;;;;;10048692;28;20132;-70
2024/01/30 07:06:29;;;;;;;14.18;7.55;;;6.40;99.90;;;;;;10054946;28;20034;-73
2024/01/30 07:11:22;;;;;;;10.90;6.63;;;6.40;99.90;;;;;;10051122;28;20075;-72
2024/01/30 07:16:12;;;;;;;12.60;5.93;;;6.40;99.90;;;;;;10054812;28;20045;-71
2024/01/30 07:21:04;;;;;;;11.45;7.85;;;6.50;99.90;;;;;;10051780;28;20506;-75
2024/01/30 07:25:54;;;;;;;12.40;6.25;;;6.50;99.90;;;;;;10055553;28;20029;-68
2024/01/30 07:30:45;;;;;;;12.30;7.00;;;6.50;99.90;;;;;;10053625;28;20060;-67
2024/01/30 07:35:36;;;;;;;12.55;7.10;;;6.60;99.90;;;;;;10026550;28;20041;-66
2024/01/30 07:40:27;;;;;;;10.05;6.43;;;6.60;99.90;;;;;;10049848;28;20060;-62
2024/01/30 07:45:22;;;;;;;11.80;7.03;;;6.50;99.90;;;;;;10048215;28;20040;-61
2024/01/30 07:50:12;;;;;;;11.73;6.93;;;6.50;99.90;;;;;;10049619;28;20030;-60
2024/01/30 07:55:03;;;;;;;12.18;7.18;;;6.50;99.90;;;;;;10050313;28;20496;-61
2024/01/30 07:59:54;;;;;;;13.00;8.07;;;6.50;99.90;;;;;;10057000;28;20109;-66
2024/01/30 08:04:48;;;;;;;13.38;7.25;;;6.60;99.90;;;;;;10054704;28;20104;-63
2024/01/30 08:09:39;;;;;;;15.45;8.18;;;6.60;99.90;;;;;;10039871;28;20025;-61
2024/01/30 08:14:29;;;;;;;11.25;7.28;;;6.60;99.90;;;;;;10054529;28;20499;-61
2024/01/30 08:19:20;;;;;;;12.65;7.65;;;6.60;99.90;;;;;;10061132;28;20033;-60
2024/01/30 08:24:10;;;;;;;13.85;6.93;;;6.70;99.90;;;;;;10051601;28;21034;-64
2024/01/30 08:29:02;;;;;;;13.75;7.95;;;6.70;99.90;;;;;;10057994;28;20033;-62
2024/01/30 08:33:52;;;;;;;13.23;7.85;;;6.80;99.90;;;;;;10053699;28;20041;-60
2024/01/30 08:38:46;;;;;;;16.48;8.05;;;6.80;99.90;;;;;;10052386;28;20052;-64
2024/01/30 08:43:37;;;;;;;15.98;8.18;;;6.80;99.90;;;;;;10058772;28;20043;-59
2024/01/30 08:48:28;;;;;;;17.42;8.88;;;6.80;99.90;;;;;;10054502;28;20026;-61
2024/01/30 08:53:19;;;;;;;14.73;8.82;;;6.90;99.90;;;;;;10050379;28;20037;-63
2024/01/30 08:58:09;;;;;;;15.73;9.02;;;6.90;99.90;;;;;;10048295;28;20367;-61
2024/01/30 09:03:00;;;;;;;17.63;9.15;;;6.80;99.90;;;;;;10048774;28;20116;-60
2024/01/30 09:07:50;;;;;;;15.38;7.97;;;6.90;99.90;;;;;;10058225;28;20080;-60
2024/01/30 09:12:41;;;;;;;14.73;7.75;;;6.90;99.90;;;;;;10059936;28;20475;-60
2024/01/30 09:17:33;;;;;;;13.57;8.15;;;6.80;99.90;;;;;;10076926;28;20037;-65
2024/01/30 09:22:23;;;;;;;12.02;7.20;;;6.80;99.90;;;;;;10065443;28;20495;-63
2024/01/30 09:27:14;;;;;;;15.05;7.75;;;6.90;99.90;;;;;;10051881;28;20021;-65
2024/01/30 09:32:06;;;;;;;17.48;7.90;;;7.00;99.90;;;;;;10050688;28;20044;-63
2024/01/30 09:36:57;;;;;;;9.65;6.68;;;7.00;99.90;;;;;;10055012;28;20041;-61
2024/01/30 09:42:09;;;;;;;14.65;7.70;;;7.10;99.90;;;;;;10053835;28;20029;-61
2024/01/30 09:47:03;;;;;;;11.02;7.22;;;7.10;99.90;;;;;;10046248;28;20658;-65
2024/01/30 09:51:57;;;;;;;11.07;6.95;;;7.10;99.90;;;;;;10038439;28;20040;-63
2024/01/30 09:56:48;;;;;;;11.98;6.65;;;7.20;99.90;;;;;;10047682;28;20053;-62
2024/01/30 10:01:39;;;;;;;12.80;6.63;;;7.20;99.90;;;;;;10052895;28;20494;-64
2024/01/30 10:06:30;;;;;;;12.13;6.93;;;7.20;99.90;;;;;;10056524;28;20030;-63
2024/01/30 10:11:21;;;;;;;12.70;6.63;;;7.20;99.90;;;;;;10056437;28;20022;-62
2024/01/30 10:16:16;;;;;;;14.60;7.55;;;7.30;99.90;;;;;;10054669;28;20076;-64
2024/01/30 10:21:08;;;;;;;12.13;6.60;;;7.40;99.90;;;;;;10056194;28;20022;-63
2024/01/30 10:25:59;;;;;;;13.82;6.93;;;7.50;99.90;;;;;;10057154;28;20029;-65
2024/01/30 10:30:59;;;;;;;10.60;5.90;;;7.60;99.90;;;;;;10054799;28;20104;-65
2024/01/30 10:35:51;;;;;;;10.98;6.03;;;7.70;99.90;;;;;;10054923;28;20072;-62
2024/01/30 10:40:43;;;;;;;9.57;6.25;;;7.70;99.90;;;;;;10059642;28;20025;-61
2024/01/30 10:45:38;;;;;;;9.38;5.75;;;7.80;99.90;;;;;;10055769;28;20056;-61
2024/01/30 10:50:30;;;;;;;10.57;7.05;;;7.80;99.90;;;;;;10061220;28;20384;-64
2024/01/30 10:55:23;;;;;;;12.07;6.07;;;7.90;99.90;;;;;;10055974;28;20041;-61
2024/01/30 11:00:15;;;;;;;11.95;6.05;;;8.00;99.90;;;;;;10054855;28;20179;-62
2024/01/30 11:05:06;;;;;;;11.48;6.68;;;8.00;99.90;;;;;;10055458;28;20033;-61
2024/01/30 11:10:13;;;;;;;9.77;5.78;;;8.00;99.90;;;;;;10054567;28;20013;-62
2024/01/30 11:15:06;;;;;;;9.73;6.03;;;8.20;99.90;;;;;;10055627;28;20661;-62
2024/01/30 11:19:59;;;;;;;13.63;6.45;;;8.20;99.90;;;;;;10054165;28;20034;-65
2024/01/30 11:24:50;;;;;;;11.02;5.68;;;8.30;99.90;;;;;;10052287;28;20111;-62
2024/01/30 11:29:40;;;;;;;11.75;6.45;;;8.40;99.90;;;;;;10054260;28;20037;-62
2024/01/30 11:34:34;;;;;;;9.05;6.40;;;8.40;99.90;;;;;;10054194;28;20071;-61
2024/01/30 11:39:28;;;;;;;10.43;5.57;;;8.50;99.90;;;;;;10047165;28;20022;-64
2024/01/30 11:44:23;;;;;;;10.57;6.32;;;8.50;99.90;;;;;;10039013;28;20060;-63
2024/01/30 11:49:14;;;;;;;8.90;5.90;;;8.60;99.90;;;;;;10047427;28;20034;-64
2024/01/30 11:54:05;;;;;;;11.25;6.22;;;8.60;99.90;;;;;;10056228;28;20038;-61
2024/01/30 11:58:55;;;;;;;10.55;6.15;;;8.80;99.90;;;;;;10053976;28;20033;-64
2024/01/30 12:03:50;;;;;;;10.32;4.88;;;8.90;99.90;;;;;;10050995;28;20030;-63
2024/01/30 12:08:41;;;;;;;11.90;5.38;;;8.90;99.90;;;;;;10046528;28;20025;-63
2024/01/30 12:13:32;;;;;;;8.88;4.93;;;9.00;99.90;;;;;;10051673;28;20037;-61
2024/01/30 12:18:23;;;;;;;7.40;5.53;;;9.10;99.90;;;;;;10057308;28;20484;-63
2024/01/30 12:23:13;;;;;;;7.78;4.45;;;9.20;99.90;;;;;;10050593;28;20115;-65
2024/01/30 12:28:04;;;;;;;9.20;4.82;;;9.20;99.90;;;;;;10055273;28;20030;-63
2024/01/30 12:32:55;;;;;;;8.70;4.75;;;9.30;99.90;;;;;;10055479;28;20691;-62
2024/01/30 12:37:47;;;;;;;8.70;5.10;;;9.30;99.90;;;;;;10049814;28;20044;-63
2024/01/30 12:42:38;;;;;;;9.98;5.18;;;9.30;99.90;;;;;;10045569;28;20068;-65
2024/01/30 12:47:28;;;;;;;11.23;5.22;;;9.40;99.90;;;;;;10052583;28;20101;-64
2024/01/30 12:52:21;;;;;;;9.25;5.40;;;9.40;99.90;;;;;;10045538;28;20116;-67
2024/01/30 12:57:12;;;;;;;9.40;5.40;;;9.40;99.90;;;;;;10045883;28;20025;-62
2024/01/30 13:02:03;;;;;;;8.98;5.32;;;9.50;99.90;;;;;;10053530;28;20033;-62
2024/01/30 13:06:53;;;;;;;7.70;4.07;;;9.40;99.90;;;;;;10058750;28;20120;-63
2024/01/30 13:11:44;;;;;;;9.70;6.13;;;9.40;99.90;;;;;;10059054;28;20200;-63
2024/01/30 13:16:35;;;;;;;7.50;4.47;;;9.50;99.90;;;;;;10059052;28;20128;-63
2024/01/30 13:21:25;;;;;;;8.43;4.43;;;9.50;99.90;;;;;;10046496;28;20514;-63
2024/01/30 13:26:16;;;;;;;9.23;4.78;;;9.70;99.90;;;;;;10049537;28;20491;-63
2024/01/30 13:31:07;;;;;;;9.90;5.05;;;9.60;99.90;;;;;;10052412;28;20080;-63
2024/01/30 13:35:58;;;;;;;8.15;4.47;;;9.60;99.90;;;;;;10058177;28;20067;-63
2024/01/30 13:40:49;;;;;;;8.00;4.85;;;9.70;99.90;;;;;;10056298;28;20458;-62
2024/01/30 13:45:41;;;;;;;8.07;4.35;;;9.70;99.90;;;;;;10058419;28;20124;-62
2024/01/30 13:50:33;;;;;;;13.52;5.38;;;9.70;99.90;;;;;;10057637;28;20026;-63
2024/01/30 13:55:23;;;;;;;8.48;5.43;;;9.70;99.90;;;;;;10057337;28;20132;-65
2024/01/30 14:00:16;;;;;;;8.13;4.20;;;9.60;99.90;;;;;;10057539;28;20113;-62
2024/01/30 14:05:06;;;;;;;8.63;4.78;;;9.70;99.90;;;;;;10056985;28;20032;-62
2024/01/30 14:09:57;;;;;;;7.75;4.03;;;9.70;99.90;;;;;;10047572;28;20033;-63
2024/01/30 14:14:48;;;;;;;8.40;4.93;;;9.70;99.90;;;;;;10045989;28;20104;-62
2024/01/30 14:19:38;;;;;;;7.85;4.93;;;9.80;99.90;;;;;;10032042;28;20029;-65
2024/01/30 14:24:29;;;;;;;9.07;4.63;;;9.70;99.90;;;;;;10056310;28;20056;-64
2024/01/30 14:29:20;;;;;;;8.95;4.90;;;9.70;99.90;;;;;;10050486;28;20013;-63
2024/01/30 14:34:10;;;;;;;11.48;4.47;;;9.70;99.90;;;;;;10047853;28;20037;-65
2024/01/30 14:39:03;;;;;;;7.55;4.57;;;9.70;99.90;;;;;;10040627;28;20052;-65
2024/01/30 14:43:56;;;;;;;9.23;4.30;;;9.80;99.90;;;;;;10037774;28;20033;-65
2024/01/30 14:48:47;;;;;;;9.63;4.22;;;9.90;99.90;;;;;;10047316;28;20560;-63
2024/01/30 14:53:38;;;;;;;6.50;3.85;;;9.90;99.90;;;;;;10050255;28;20586;-63
2024/01/30 14:58:29;;;;;;;7.80;4.22;;;9.80;99.90;;;;;;10053559;28;20026;-66
2024/01/30 15:03:19;;;;;;;7.88;5.13;;;9.80;99.90;;;;;;10055435;28;20021;-64
2024/01/30 15:08:10;;;;;;;7.18;4.35;;;9.80;99.90;;;;;;10055433;28;20424;-64
2024/01/30 15:13:01;;;;;;;8.52;4.22;;;9.90;99.90;;;;;;10064576;28;20029;-63
2024/01/30 15:17:51;;;;;;;9.35;4.30;;;9.90;99.90;;;;;;10054943;28;20071;-65
2024/01/30 15:22:42;;;;;;;7.47;4.50;;;9.90;99.90;;;;;;10062271;28;20087;-64
2024/01/30 15:27:36;;;;;;;13.32;5.82;;;10.00;99.90;;;;;;10052793;28;20038;-63
2024/01/30 15:32:26;;;;;;;12.00;5.78;;;10.00;99.90;;;;;;10037418;28;20060;-65
2024/01/30 15:37:17;;;;;;;12.32;5.78;;;10.00;99.90;;;;;;10055552;28;20175;-64
2024/01/30 15:42:08;;;;;;;9.07;5.68;;;10.00;99.90;;;;;;10061241;28;20460;-63
2024/01/30 15:46:59;;;;;;;13.52;5.80;;;10.00;99.90;;;;;;10059480;28;20514;-64
2024/01/30 15:51:49;;;;;;;10.80;7.22;;;10.00;99.90;;;;;;10062496;28;20036;-65
2024/01/30 15:56:40;;;;;;;13.27;6.15;;;10.00;99.90;;;;;;10062717;28;20564;-64
2024/01/30 16:01:31;;;;;;;11.20;6.20;;;10.00;99.90;;;;;;10056701;28;20057;-62
2024/01/30 16:06:22;;;;;;;12.45;6.22;;;9.90;99.90;;;;;;10061919;28;20037;-63
2024/01/30 16:11:16;;;;;;;12.48;6.38;;;9.90;99.90;;;;;;10059837;28;20341;-64
2024/01/30 16:16:08;;;;;;;11.15;5.82;;;9.90;99.90;;;;;;10055146;28;20033;-65
2024/01/30 16:21:00;;;;;;;9.73;5.30;;;9.90;99.90;;;;;;10051727;28;20503;-65
2024/01/30 16:25:50;;;;;;;9.23;4.85;;;10.00;99.90;;;;;;10042639;28;20076;-63
2024/01/30 16:30:41;;;;;;;13.35;5.07;;;10.00;99.90;;;;;;10040478;28;20045;-64
2024/01/30 16:35:32;;;;;;;7.47;4.53;;;9.90;99.90;;;;;;10051598;28;20041;-65
2024/01/30 16:40:22;;;;;;;5.88;4.20;;;10.00;99.90;;;;;;10060903;28;20029;-63
2024/01/30 16:45:13;;;;;;;9.60;5.63;;;10.00;99.90;;;;;;10051172;28;20497;-66
2024/01/30 16:50:04;;;;;;;6.97;4.68;;;10.00;99.90;;;;;;10091668;28;20069;-64
2024/01/30 16:54:55;;;;;;;7.43;4.93;;;10.00;99.90;;;;;;10065325;28;20519;-66
2024/01/30 16:59:45;;;;;;;8.50;4.72;;;10.10;99.90;;;;;;10054890;28;20036;-63
2024/01/30 17:04:40;;;;;;;8.75;4.60;;;10.00;99.90;;;;;;10047575;28;20033;-65
2024/01/30 17:09:32;;;;;;;7.43;4.30;;;10.00;99.90;;;;;;10045097;28;20415;-67
2024/01/30 17:14:22;;;;;;;8.10;4.28;;;10.10;99.90;;;;;;10053965;28;20038;-65
2024/01/30 17:19:14;;;;;;;7.60;4.13;;;10.10;99.90;;;;;;10051289;28;20048;-65
2024/01/30 17:24:07;;;;;;;9.93;4.53;;;10.10;99.90;;;;;;10046881;28;20042;-63
2024/01/30 17:28:57;;;;;;;8.30;4.68;;;10.10;99.90;;;;;;10044476;28;20021;-63
2024/01/30 17:33:48;;;;;;;7.53;4.97;;;10.10;99.90;;;;;;10051773;28;20053;-64
2024/01/30 17:38:39;;;;;;;9.60;6.15;;;10.10;99.90;;;;;;10047479;28;20080;-64
2024/01/30 17:43:29;;;;;;;9.07;4.80;;;10.10;99.90;;;;;;10029789;28;20499;-63
2024/01/30 17:48:20;;;;;;;6.93;4.70;;;10.10;99.90;;;;;;10037531;28;20022;-63
2024/01/30 17:53:11;;;;;;;7.65;5.03;;;10.20;99.90;;;;;;10034540;28;20029;-64
2024/01/30 17:58:03;;;;;;;7.57;5.50;;;10.20;99.90;;;;;;10034108;28;20072;-66
2024/01/30 18:02:55;;;;;;;8.45;5.15;;;10.20;99.90;;;;;;10042926;28;20598;-65
2024/01/30 18:07:46;;;;;;;6.47;4.55;;;10.20;99.90;;;;;;10043828;28;20758;-69
2024/01/30 18:12:36;;;;;;;8.20;4.18;;;10.20;99.90;;;;;;10048624;28;20112;-69
2024/01/30 18:17:27;;;;;;;8.85;4.88;;;10.30;99.90;;;;;;10047575;28;20083;-68
2024/01/30 18:22:18;;;;;;;6.95;4.72;;;10.20;99.90;;;;;;10045293;28;20508;-68
2024/01/30 18:27:09;;;;;;;9.18;5.10;;;10.30;99.90;;;;;;10046406;28;20034;-71
2024/01/30 18:32:02;;;;;;;9.00;4.93;;;10.30;99.90;;;;;;10048690;28;20510;-63
2024/01/30 18:36:57;;;;;;;5.90;3.97;;;10.30;99.90;;;;;;10046854;28;20854;-69
2024/01/30 18:41:48;;;;;;;8.38;4.35;;;10.30;99.90;;;;;;10056422;28;20037;-69
2024/01/30 18:46:38;;;;;;;7.72;5.20;;;10.30;99.90;;;;;;10055557;28;20029;-62
2024/01/30 18:51:30;;;;;;;7.07;4.75;;;10.30;99.90;;;;;;10055330;28;20029;-71
2024/01/30 18:56:20;;;;;;;7.75;5.60;;;10.20;99.90;;;;;;10053636;28;20044;-66
2024/01/30 19:01:11;;;;;;;7.97;5.03;;;10.30;99.90;;;;;;10054278;28;20563;-71
2024/01/30 19:06:02;;;;;;;10.13;4.90;;;10.20;99.90;;;;;;10055086;28;20490;-64
2024/01/30 19:10:53;;;;;;;10.50;4.97;;;10.20;99.90;;;;;;10061133;28;20036;-68
2024/01/30 19:15:44;;;;;;;11.25;6.10;;;10.20;99.90;;;;;;10055598;28;20507;-65
2024/01/30 19:20:35;;;;;;;7.85;5.20;;;10.20;99.90;;;;;;10056000;28;20036;-65
2024/01/30 19:25:26;;;;;;;9.80;5.53;;;10.20;99.90;;;;;;10055265;28;20045;-63
2024/01/30 19:30:17;;;;;;;6.35;4.95;;;10.20;99.90;;;;;;10054984;28;20025;-70
2024/01/30 19:35:09;;;;;;;10.43;5.15;;;10.20;99.90;;;;;;10055625;28;20057;-66
2024/01/30 19:39:59;;;;;;;9.23;5.78;;;10.20;99.90;;;;;;10037121;28;20127;-63
2024/01/30 19:44:50;;;;;;;10.27;5.03;;;10.20;99.90;;;;;;10050112;28;20095;-65
2024/01/30 19:49:41;;;;;;;10.07;4.82;;;10.10;99.90;;;;;;10056133;28;20013;-67
2024/01/30 19:54:32;;;;;;;9.77;4.93;;;10.10;99.90;;;;;;10056875;28;20125;-61
2024/01/30 19:59:23;;;;;;;11.55;5.00;;;10.10;99.90;;;;;;10053899;28;20112;-65
2024/01/30 20:04:14;;;;;;;13.35;6.43;;;10.10;99.90;;;;;;10037356;28;20125;-62
2024/01/30 20:09:06;;;;;;;13.90;6.65;;;10.10;99.90;;;;;;10051528;28;20523;-63
2024/01/30 20:13:57;;;;;;;10.75;6.82;;;10.00;99.90;;;;;;10050961;28;20064;-65
2024/01/30 20:18:47;;;;;;;11.75;6.93;;;10.10;99.90;;;;;;10044610;28;20113;-64
2024/01/30 20:23:38;;;;;;;17.08;9.02;;;10.10;99.90;;;;;;10047423;28;20666;-63
2024/01/30 20:28:29;;;;;;;13.38;8.93;;;10.10;99.90;;;;;;10045984;28;20033;-64
2024/01/30 20:33:20;;;;;;;15.73;8.95;;;10.10;99.90;;;;;;10046864;28;20354;-63
2024/01/30 20:38:10;;;;;;;14.30;8.52;;;10.10;99.90;;;;;;10051570;28;20114;-65
2024/01/30 20:43:01;;;;;;;14.98;8.13;;;10.10;99.90;;;;;;10060377;28;20071;-63
2024/01/30 20:47:51;;;;;;;13.45;8.55;;;10.10;99.90;;;;;;10045361;28;20036;-69
2024/01/30 20:52:42;;;;;;;14.07;8.07;;;10.10;99.90;;;;;;10058451;28;20033;-70
2024/01/30 20:57:33;;;;;;;15.45;8.38;;;10.00;99.90;;;;;;10059451;28;20195;-69
2024/01/30 21:02:24;;;;;;;17.55;8.77;;;10.00;99.90;;;;;;10059677;28;20033;-69
2024/01/30 21:07:14;;;;;;;17.65;8.90;;;10.00;99.90;;;;;;10064419;28;20466;-65
2024/01/30 21:12:05;;;;;;;14.95;9.40;;;10.10;99.90;;;;;;10059786;28;20044;-64
2024/01/30 21:16:59;;;;;;;19.30;10.48;;;10.10;99.90;;;;;;10060820;28;20037;-65
2024/01/30 21:21:51;;;;;;;20.70;10.73;;;10.10;99.90;;;;;;10061826;28;20060;-65
2024/01/30 21:26:41;;;;;;;17.00;10.27;;;10.10;99.90;;;;;;10090478;28;20060;-67
2024/01/30 21:31:32;;;;;;;14.45;8.57;;;10.00;99.90;;;;;;10060656;28;20056;-67
2024/01/30 21:36:23;;;;;;;19.02;9.63;;;10.10;99.90;;;;;;10042991;28;20048;-61
2024/01/30 21:41:16;;;;;;;16.88;9.38;;;10.00;99.90;;;;;;10048599;28;20385;-70
2024/01/30 21:46:07;;;;;;;15.52;8.95;;;10.00;99.90;;;;;;10053764;28;20033;-73
2024/01/30 21:50:58;;;;;;;14.15;8.95;;;10.10;99.90;;;;;;10052692;28;20032;-63
2024/01/30 21:55:49;;;;;;;16.58;8.82;;;10.10;99.90;;;;;;10047112;28;20064;-61
2024/01/30 22:00:39;;;;;;;14.10;7.50;;;10.10;99.90;;;;;;10057580;28;20041;-63
2024/01/30 22:05:31;;;;;;;11.30;6.25;;;10.10;99.90;;;;;;10055656;28;20029;-62
2024/01/30 22:10:21;;;;;;;12.57;6.88;;;10.10;99.90;;;;;;10056562;28;20100;-62
2024/01/30 22:15:12;;;;;;;11.77;6.40;;;10.10;99.90;;;;;;10061858;28;20132;-63
2024/01/30 22:20:04;;;;;;;13.75;6.70;;;10.10;99.90;;;;;;10056285;28;20108;-62
2024/01/30 22:24:54;;;;;;;13.32;7.13;;;10.10;99.90;;;;;;10056156;28;20497;-62
2024/01/30 22:29:45;;;;;;;10.15;5.85;;;10.10;99.90;;;;;;10049742;28;20148;-63
2024/01/30 22:34:37;;;;;;;11.30;7.30;;;10.10;99.90;;;;;;10066080;28;20041;-62
2024/01/30 22:39:28;;;;;;;10.60;6.57;;;10.10;99.90;;;;;;10071655;28;20029;-62
2024/01/30 22:44:18;;;;;;;11.57;6.47;;;10.10;99.90;;;;;;10068379;28;20031;-63
2024/01/30 22:49:09;;;;;;;13.73;6.93;;;10.10;99.90;;;;;;10072225;28;20434;-65
2024/01/30 22:54:00;;;;;;;12.40;7.25;;;10.10;99.90;;;;;;10072456;28;20136;-62
2024/01/30 22:58:50;;;;;;;13.38;7.85;;;10.10;99.90;;;;;;10063336;28;20086;-67
2024/01/30 23:03:41;;;;;;;13.95;7.47;;;10.10;99.90;;;;;;10066006;28;20047;-61
2024/01/30 23:08:32;;;;;;;15.27;7.85;;;10.10;99.90;;;;;;10070778;28;20486;-62
2024/01/30 23:13:23;;;;;;;14.43;8.60;;;10.20;99.90;;;;;;10071437;28;20079;-66
2024/01/30 23:18:14;;;;;;;12.70;7.88;;;10.20;99.90;;;;;;10062641;28;20391;-63
2024/01/30 23:23:07;;;;;;;12.95;7.72;;;10.20;99.90;;;;;;10072069;28;20507;-61
2024/01/30 23:27:58;;;;;;;14.40;8.15;;;10.20;99.90;;;;;;10070152;28;20060;-63
2024/01/30 23:32:49;;;;;;;13.27;8.73;;;10.10;99.90;;;;;;10072468;28;20078;-64
2024/01/30 23:37:39;;;;;;;12.10;7.10;;;10.20;99.90;;;;;;10054478;28;20470;-62
2024/01/30 23:42:30;;;;;;;13.85;7.60;;;10.20;99.90;;;;;;10060862;28;20041;-66
2024/01/30 23:47:21;;;;;;;15.98;8.32;;;10.20;99.90;;;;;;10062885;28;20108;-66
2024/01/30 23:52:11;;;;;;;11.43;7.00;;;10.20;99.90;;;;;;10061533;28;20040;-64
2024/01/30 23:57:02;;;;;;;10.25;7.32;;;10.20;99.90;;;;;;10057449;28;20037;-62
